METAR Data
IDs: Format: Raw Decoded Include TAF

Data at: 0103 UTC 12 May 2021

METAR for:TIST (St Thomas/King Arpt, VI, US)
Text:TIST 120053Z 08009KT 10SM CLR 27/21 A3005 RMK AO2 SLP177 T02720211
Temperature: 27.2°C ( 81°F)
Dewpoint: 21.1°C ( 70°F) [RH = 69%]
Pressure (altimeter):30.05 inches Hg (1017.7 mb) [Sea level pressure: 1017.7 mb]
Winds:from the E (80 degrees) at 10 MPH (9 knots; 4.6 m/s)
Visibility:10 or more sm (16+ km)
Ceiling:at least 12,000 feet AGL
Clouds:sky clear below 12,000 feet AGL